PWSweather.com
Personal Weather Stations
Station Observations
KPLY111
14 Baltic Ave., Plymouth, MA 02360

14 Baltic Ave.Plymouth, MA 02360

Lat: 41.94, Lon: -70.66

Elevation: 110

Station Type: Davis Vantage Pro Plus 2

http://johnsweather.com/

Latest ConditionsUpdated 12:05:03 PM EST Sunday, Jan 26, 2020
Currently Today's Max Today's Min Today's Average
Temperature 48.5°F9.2°C 52.0°F11.1°C 40.7°F4.8°C 45.4°F7.4°C
Dew Point 35.0°F1.7°C 49.0°F9.4°C 35.0°F1.7°C 41.1°F5.1°C
Winds 2.0 mph NW3.2 kmh NW 11.0 mph -17.7 kmh - - 2.5 mph 4.0 kmh
Wind Gusts 10.0 mph16.1 kmh 21.0 mph33.8 kmh - -
Humidity 61% 88% 61% 85%
Pressure 29.62 in1003.0 mb 29.67 in1004.7 mb 29.62 in1003.0 mb -
Hour Temp Dew Point Humidity Winds Wind Gusts Pressure Precip Precip Rate Daily Precip Total
12:05 PM 48.5°F9.2°C 35.0°F1.7°C 61% 2.0 mph NW3.2 kmh NW 10.0 mph16.1 kmh 29.62 in1003.0 mb 0.00 in0.0 mm 0.00 in0.0 mm 0.00 in0.0 mm
12:00 PM 48.6°F9.2°C 36.0°F2.2°C 63% 3.0 mph SE4.8 kmh SE 12.0 mph19.3 kmh 29.62 in1003.0 mb 0.00 in0.0 mm 0.00 in0.0 mm 0.00 in0.0 mm
11:55 AM 48.2°F9.0°C 36.0°F2.2°C 64% 1.0 mph SW1.6 kmh SW 12.0 mph19.3 kmh 29.62 in1003.0 mb 0.00 in0.0 mm 0.00 in0.0 mm 0.00 in0.0 mm
11:50 AM 48.0°F8.9°C 36.0°F2.2°C 64% 7.0 mph SSW11.3 kmh SSW 10.0 mph16.1 kmh 29.62 in1003.0 mb 0.00 in0.0 mm 0.00 in0.0 mm 0.00 in0.0 mm
11:45 AM 47.8°F8.8°C 36.0°F2.2°C 64% 5.0 mph S8.0 kmh S 10.0 mph16.1 kmh 29.63 in1003.4 mb 0.00 in0.0 mm 0.00 in0.0 mm 0.00 in0.0 mm
11:40 AM 47.7°F8.7°C 36.0°F2.2°C 64% 4.0 mph WNW6.4 kmh WNW 9.0 mph14.5 kmh 29.63 in1003.4 mb 0.00 in0.0 mm 0.00 in0.0 mm 0.00 in0.0 mm
11:35 AM 47.8°F8.8°C 36.0°F2.2°C 65% 7.0 mph WNW11.3 kmh WNW 13.0 mph20.9 kmh 29.63 in1003.4 mb 0.00 in0.0 mm 0.00 in0.0 mm 0.00 in0.0 mm
11:30 AM 47.8°F8.8°C 37.0°F2.8°C 66% 4.0 mph E6.4 kmh E 13.0 mph20.9 kmh 29.64 in1003.7 mb 0.00 in0.0 mm 0.00 in0.0 mm 0.00 in0.0 mm
11:25 AM 47.8°F8.8°C 37.0°F2.8°C 66% 5.0 mph WNW8.0 kmh WNW 13.0 mph20.9 kmh 29.64 in1003.7 mb 0.00 in0.0 mm 0.00 in0.0 mm 0.00 in0.0 mm
11:20 AM 47.8°F8.8°C 36.0°F2.2°C 65% 11.0 mph SW17.7 kmh SW 13.0 mph20.9 kmh 29.64 in1003.7 mb 0.00 in0.0 mm 0.00 in0.0 mm 0.00 in0.0 mm
11:15 AM 47.8°F8.8°C 36.0°F2.2°C 65% 6.0 mph WSW9.7 kmh WSW 12.0 mph19.3 kmh 29.65 in1004.1 mb 0.00 in0.0 mm 0.00 in0.0 mm 0.00 in0.0 mm
11:10 AM 48.1°F8.9°C 37.0°F2.8°C 66% 4.0 mph NNE6.4 kmh NNE 9.0 mph14.5 kmh 29.65 in1004.1 mb 0.00 in0.0 mm 0.00 in0.0 mm 0.00 in0.0 mm
11:05 AM 48.1°F8.9°C 38.0°F3.3°C 68% 2.0 mph NW3.2 kmh NW 12.0 mph19.3 kmh 29.65 in1004.1 mb 0.00 in0.0 mm 0.00 in0.0 mm 0.00 in0.0 mm
11:00 AM 47.7°F8.7°C 38.0°F3.3°C 68% 4.0 mph NW6.4 kmh NW 12.0 mph19.3 kmh 29.65 in1004.1 mb 0.00 in0.0 mm 0.00 in0.0 mm 0.00 in0.0 mm
10:55 AM 47.7°F8.7°C 38.0°F3.3°C 70% 1.0 mph W1.6 kmh W 11.0 mph17.7 kmh 29.66 in1004.4 mb 0.00 in0.0 mm 0.00 in0.0 mm 0.00 in0.0 mm
10:50 AM 47.4°F8.6°C 38.0°F3.3°C 71% 4.0 mph W6.4 kmh W 11.0 mph17.7 kmh 29.66 in1004.4 mb 0.00 in0.0 mm 0.00 in0.0 mm 0.00 in0.0 mm
10:45 AM 47.0°F8.3°C 38.0°F3.3°C 72% 3.0 mph NW4.8 kmh NW 9.0 mph14.5 kmh 29.66 in1004.4 mb 0.00 in0.0 mm 0.00 in0.0 mm 0.00 in0.0 mm
10:40 AM 46.6°F8.1°C 39.0°F3.9°C 74% 2.0 mph WNW3.2 kmh WNW 21.0 mph33.8 kmh 29.66 in1004.4 mb 0.00 in0.0 mm 0.00 in0.0 mm 0.00 in0.0 mm
10:35 AM 46.5°F8.1°C 39.0°F3.9°C 76% 3.0 mph W4.8 kmh W 21.0 mph33.8 kmh 29.66 in1004.4 mb 0.00 in0.0 mm 0.00 in0.0 mm 0.00 in0.0 mm
10:30 AM 46.2°F7.9°C 40.0°F4.4°C 78% 6.0 mph SSW9.7 kmh SSW 18.0 mph29.0 kmh 29.66 in1004.4 mb 0.00 in0.0 mm 0.00 in0.0 mm 0.00 in0.0 mm
10:25 AM 45.4°F7.4°C 40.0°F4.4°C 80% 2.0 mph SW3.2 kmh SW 18.0 mph29.0 kmh 29.66 in1004.4 mb 0.00 in0.0 mm 0.00 in0.0 mm 0.00 in0.0 mm
10:20 AM 44.7°F7.1°C 40.0°F4.4°C 82% 6.0 mph N9.7 kmh N 11.0 mph17.7 kmh 29.66 in1004.4 mb 0.00 in0.0 mm 0.00 in0.0 mm 0.00 in0.0 mm
10:15 AM 44.5°F6.9°C 40.0°F4.4°C 83% 1.0 mph SSE1.6 kmh SSE 7.0 mph11.3 kmh 29.67 in1004.7 mb 0.00 in0.0 mm 0.00 in0.0 mm 0.00 in0.0 mm
10:10 AM 44.4°F6.9°C 40.0°F4.4°C 84% 3.0 mph WNW4.8 kmh WNW 10.0 mph16.1 kmh 29.67 in1004.7 mb 0.00 in0.0 mm 0.00 in0.0 mm 0.00 in0.0 mm
10:05 AM 44.0°F6.7°C 40.0°F4.4°C 85% 1.0 mph WNW1.6 kmh WNW 11.0 mph17.7 kmh 29.66 in1004.4 mb 0.00 in0.0 mm 0.00 in0.0 mm 0.00 in0.0 mm
10:00 AM 43.7°F6.5°C 40.0°F4.4°C 86% 2.0 mph SW3.2 kmh SW 12.0 mph19.3 kmh 29.66 in1004.4 mb 0.00 in0.0 mm 0.00 in0.0 mm 0.00 in0.0 mm
09:55 AM 43.5°F6.4°C 40.0°F4.4°C 87% 2.0 mph N3.2 kmh N 13.0 mph20.9 kmh 29.66 in1004.4 mb 0.00 in0.0 mm 0.00 in0.0 mm 0.00 in0.0 mm
09:50 AM 42.9°F6.1°C 39.0°F3.9°C 87% 5.0 mph WNW8.0 kmh WNW 13.0 mph20.9 kmh 29.66 in1004.4 mb 0.00 in0.0 mm 0.00 in0.0 mm 0.00 in0.0 mm
09:45 AM 42.3°F5.7°C 39.0°F3.9°C 88% 4.0 mph NNW6.4 kmh NNW 10.0 mph16.1 kmh 29.66 in1004.4 mb 0.00 in0.0 mm 0.00 in0.0 mm 0.00 in0.0 mm
09:40 AM 41.5°F5.3°C 38.0°F3.3°C 88% 2.0 mph NE3.2 kmh NE 15.0 mph24.1 kmh 29.66 in1004.4 mb 0.00 in0.0 mm 0.00 in0.0 mm 0.00 in0.0 mm
09:35 AM 41.0°F5.0°C 38.0°F3.3°C 88% 5.0 mph SW8.0 kmh SW 15.0 mph24.1 kmh 29.67 in1004.7 mb 0.00 in0.0 mm 0.00 in0.0 mm 0.00 in0.0 mm
09:30 AM 40.7°F4.8°C 38.0°F3.3°C 88% 1.0 mph NNW1.6 kmh NNW 15.0 mph24.1 kmh 29.67 in1004.7 mb 0.00 in0.0 mm 0.00 in0.0 mm 0.00 in0.0 mm
09:25 AM 41.0°F5.0°C 38.0°F3.3°C 88% 4.0 mph SW6.4 kmh SW 11.0 mph17.7 kmh 29.66 in1004.4 mb 0.00 in0.0 mm 0.00 in0.0 mm 0.00 in0.0 mm
09:20 AM 40.9°F4.9°C 38.0°F3.3°C 88% 1.0 mph NE1.6 kmh NE 10.0 mph16.1 kmh 29.66 in1004.4 mb 0.00 in0.0 mm 0.00 in0.0 mm 0.00 in0.0 mm
09:15 AM 40.9°F4.9°C 38.0°F3.3°C 88% 4.0 mph WSW6.4 kmh WSW 10.0 mph16.1 kmh 29.66 in1004.4 mb 0.00 in0.0 mm 0.00 in0.0 mm 0.00 in0.0 mm
09:10 AM 40.9°F4.9°C 38.0°F3.3°C 88% 4.0 mph S6.4 kmh S 10.0 mph16.1 kmh 29.67 in1004.7 mb 0.00 in0.0 mm 0.00 in0.0 mm 0.00 in0.0 mm
09:05 AM 41.0°F5.0°C 38.0°F3.3°C 88% 8.0 mph SW12.9 kmh SW 10.0 mph16.1 kmh 29.67 in1004.7 mb 0.00 in0.0 mm 0.00 in0.0 mm 0.00 in0.0 mm
09:00 AM 41.0°F5.0°C 38.0°F3.3°C 88% 6.0 mph SW9.7 kmh SW 10.0 mph16.1 kmh 29.67 in1004.7 mb 0.00 in0.0 mm 0.00 in0.0 mm 0.00 in0.0 mm
08:55 AM 41.0°F5.0°C 38.0°F3.3°C 88% 2.0 mph SW3.2 kmh SW 10.0 mph16.1 kmh 29.67 in1004.7 mb 0.00 in0.0 mm 0.00 in0.0 mm 0.00 in0.0 mm
08:50 AM 41.0°F5.0°C 38.0°F3.3°C 88% 8.0 mph W12.9 kmh W 10.0 mph16.1 kmh 29.67 in1004.7 mb 0.00 in0.0 mm 0.00 in0.0 mm 0.00 in0.0 mm
08:45 AM 41.0°F5.0°C 38.0°F3.3°C 88% 5.0 mph SW8.0 kmh SW 9.0 mph14.5 kmh 29.67 in1004.7 mb 0.00 in0.0 mm 0.00 in0.0 mm 0.00 in0.0 mm
08:40 AM 41.1°F5.1°C 38.0°F3.3°C 88% Calm Calm 11.0 mph17.7 kmh 29.67 in1004.7 mb 0.00 in0.0 mm 0.00 in0.0 mm 0.00 in0.0 mm
08:35 AM 41.1°F5.1°C 38.0°F3.3°C 88% 1.0 mph WSW1.6 kmh WSW 11.0 mph17.7 kmh 29.67 in1004.7 mb 0.00 in0.0 mm 0.00 in0.0 mm 0.00 in0.0 mm
08:30 AM 41.2°F5.1°C 38.0°F3.3°C 88% 5.0 mph SW8.0 kmh SW 11.0 mph17.7 kmh 29.67 in1004.7 mb 0.00 in0.0 mm 0.00 in0.0 mm 0.00 in0.0 mm
08:25 AM 41.3°F5.2°C 38.0°F3.3°C 88% Calm Calm 10.0 mph16.1 kmh 29.67 in1004.7 mb 0.00 in0.0 mm 0.00 in0.0 mm 0.00 in0.0 mm
08:20 AM 41.4°F5.2°C 38.0°F3.3°C 88% 2.0 mph NW3.2 kmh NW 9.0 mph14.5 kmh 29.67 in1004.7 mb 0.00 in0.0 mm 0.00 in0.0 mm 0.00 in0.0 mm
08:15 AM 41.5°F5.3°C 38.0°F3.3°C 88% 2.0 mph SSW3.2 kmh SSW 7.0 mph11.3 kmh 29.67 in1004.7 mb 0.00 in0.0 mm 0.00 in0.0 mm 0.00 in0.0 mm
08:10 AM 41.5°F5.3°C 38.0°F3.3°C 88% 3.0 mph WNW4.8 kmh WNW 6.0 mph9.7 kmh 29.67 in1004.7 mb 0.00 in0.0 mm 0.00 in0.0 mm 0.00 in0.0 mm
08:05 AM 41.6°F5.3°C 38.0°F3.3°C 88% 1.0 mph WNW1.6 kmh WNW 5.0 mph8.0 kmh 29.67 in1004.7 mb 0.00 in0.0 mm 0.00 in0.0 mm 0.00 in0.0 mm
08:00 AM 41.6°F5.3°C 38.0°F3.3°C 88% Calm Calm 6.0 mph9.7 kmh 29.67 in1004.7 mb 0.00 in0.0 mm 0.00 in0.0 mm 0.00 in0.0 mm
07:55 AM 41.6°F5.3°C 38.0°F3.3°C 88% Calm Calm 8.0 mph12.9 kmh 29.67 in1004.7 mb 0.00 in0.0 mm 0.00 in0.0 mm 0.00 in0.0 mm
07:50 AM 41.7°F5.4°C 38.0°F3.3°C 88% 1.0 mph N1.6 kmh N 10.0 mph16.1 kmh 29.67 in1004.7 mb 0.00 in0.0 mm 0.00 in0.0 mm 0.00 in0.0 mm
07:45 AM 41.8°F5.4°C 39.0°F3.9°C 88% 2.0 mph N3.2 kmh N 10.0 mph16.1 kmh 29.67 in1004.7 mb 0.00 in0.0 mm 0.00 in0.0 mm 0.00 in0.0 mm
07:40 AM 42.0°F5.6°C 39.0°F3.9°C 88% Calm Calm 8.0 mph12.9 kmh 29.67 in1004.7 mb 0.00 in0.0 mm 0.00 in0.0 mm 0.00 in0.0 mm
07:35 AM 42.2°F5.7°C 39.0°F3.9°C 88% 4.0 mph WNW6.4 kmh WNW 8.0 mph12.9 kmh 29.67 in1004.7 mb 0.00 in0.0 mm 0.00 in0.0 mm 0.00 in0.0 mm
07:30 AM 42.4°F5.8°C 39.0°F3.9°C 88% 1.0 mph NW1.6 kmh NW 8.0 mph12.9 kmh 29.66 in1004.4 mb 0.00 in0.0 mm 0.00 in0.0 mm 0.00 in0.0 mm
07:25 AM 42.5°F5.8°C 39.0°F3.9°C 88% 1.0 mph WNW1.6 kmh WNW 7.0 mph11.3 kmh 29.66 in1004.4 mb 0.00 in0.0 mm 0.00 in0.0 mm 0.00 in0.0 mm
07:20 AM 42.6°F5.9°C 39.0°F3.9°C 88% Calm Calm 4.0 mph6.4 kmh 29.66 in1004.4 mb 0.00 in0.0 mm 0.00 in0.0 mm 0.00 in0.0 mm
07:15 AM 42.7°F5.9°C 39.0°F3.9°C 88% Calm Calm 4.0 mph6.4 kmh 29.66 in1004.4 mb 0.00 in0.0 mm 0.00 in0.0 mm 0.00 in0.0 mm
07:10 AM 42.8°F6.0°C 40.0°F4.4°C 88% 1.0 mph SW1.6 kmh SW 4.0 mph6.4 kmh 29.66 in1004.4 mb 0.00 in0.0 mm 0.00 in0.0 mm 0.00 in0.0 mm
07:05 AM 42.9°F6.1°C 40.0°F4.4°C 88% Calm Calm 6.0 mph9.7 kmh 29.66 in1004.4 mb 0.00 in0.0 mm 0.00 in0.0 mm 0.00 in0.0 mm
07:00 AM 42.9°F6.1°C 40.0°F4.4°C 88% Calm Calm 7.0 mph11.3 kmh 29.66 in1004.4 mb 0.00 in0.0 mm 0.00 in0.0 mm 0.00 in0.0 mm
06:55 AM 43.1°F6.2°C 40.0°F4.4°C 88% Calm Calm 7.0 mph11.3 kmh 29.66 in1004.4 mb 0.00 in0.0 mm 0.00 in0.0 mm 0.00 in0.0 mm
06:50 AM 43.2°F6.2°C 40.0°F4.4°C 88% Calm Calm 6.0 mph9.7 kmh 29.65 in1004.1 mb 0.00 in0.0 mm 0.00 in0.0 mm 0.00 in0.0 mm
06:45 AM 43.4°F6.3°C 40.0°F4.4°C 88% 1.0 mph WSW1.6 kmh WSW 7.0 mph11.3 kmh 29.66 in1004.4 mb 0.00 in0.0 mm 0.00 in0.0 mm 0.00 in0.0 mm
06:40 AM 43.6°F6.4°C 40.0°F4.4°C 88% 5.0 mph NW8.0 kmh NW 8.0 mph12.9 kmh 29.65 in1004.1 mb 0.00 in0.0 mm 0.00 in0.0 mm 0.00 in0.0 mm
06:35 AM 43.7°F6.5°C 40.0°F4.4°C 88% 1.0 mph SW1.6 kmh SW 8.0 mph12.9 kmh 29.65 in1004.1 mb 0.00 in0.0 mm 0.00 in0.0 mm 0.00 in0.0 mm
06:30 AM 43.9°F6.6°C 41.0°F5.0°C 88% Calm Calm 11.0 mph17.7 kmh 29.65 in1004.1 mb 0.00 in0.0 mm 0.00 in0.0 mm 0.00 in0.0 mm
06:25 AM 44.1°F6.7°C 41.0°F5.0°C 88% 1.0 mph WSW1.6 kmh WSW 12.0 mph19.3 kmh 29.64 in1003.7 mb 0.00 in0.0 mm 0.00 in0.0 mm 0.00 in0.0 mm
06:20 AM 44.2°F6.8°C 41.0°F5.0°C 88% 1.0 mph WSW1.6 kmh WSW 12.0 mph19.3 kmh 29.65 in1004.1 mb 0.00 in0.0 mm 0.00 in0.0 mm 0.00 in0.0 mm
06:15 AM 44.3°F6.8°C 41.0°F5.0°C 88% 5.0 mph W8.0 kmh W 9.0 mph14.5 kmh 29.64 in1003.7 mb 0.00 in0.0 mm 0.00 in0.0 mm 0.00 in0.0 mm
06:10 AM 44.4°F6.9°C 41.0°F5.0°C 88% 4.0 mph SSW6.4 kmh SSW 9.0 mph14.5 kmh 29.64 in1003.7 mb 0.00 in0.0 mm 0.00 in0.0 mm 0.00 in0.0 mm
06:05 AM 44.5°F6.9°C 41.0°F5.0°C 88% 4.0 mph SW6.4 kmh SW 6.0 mph9.7 kmh 29.64 in1003.7 mb 0.00 in0.0 mm 0.00 in0.0 mm 0.00 in0.0 mm
06:00 AM 44.6°F7.0°C 41.0°F5.0°C 88% 2.0 mph SE3.2 kmh SE 6.0 mph9.7 kmh 29.64 in1003.7 mb 0.00 in0.0 mm 0.00 in0.0 mm 0.00 in0.0 mm
05:55 AM 44.7°F7.1°C 41.0°F5.0°C 88% Calm Calm 6.0 mph9.7 kmh 29.64 in1003.7 mb 0.00 in0.0 mm 0.00 in0.0 mm 0.00 in0.0 mm
05:50 AM 44.7°F7.1°C 41.0°F5.0°C 88% Calm Calm 5.0 mph8.0 kmh 29.64 in1003.7 mb 0.00 in0.0 mm 0.00 in0.0 mm 0.00 in0.0 mm
05:45 AM 44.8°F7.1°C 42.0°F5.6°C 88% Calm Calm 5.0 mph8.0 kmh 29.64 in1003.7 mb 0.00 in0.0 mm 0.00 in0.0 mm 0.00 in0.0 mm
05:40 AM 44.8°F7.1°C 42.0°F5.6°C 88% Calm Calm 8.0 mph12.9 kmh 29.64 in1003.7 mb 0.00 in0.0 mm 0.00 in0.0 mm 0.00 in0.0 mm
05:35 AM 44.8°F7.1°C 42.0°F5.6°C 88% Calm Calm 8.0 mph12.9 kmh 29.64 in1003.7 mb 0.00 in0.0 mm 0.00 in0.0 mm 0.00 in0.0 mm
05:30 AM 44.9°F7.2°C 42.0°F5.6°C 88% 1.0 mph SW1.6 kmh SW 4.0 mph6.4 kmh 29.63 in1003.4 mb 0.00 in0.0 mm 0.00 in0.0 mm 0.00 in0.0 mm
05:25 AM 44.9°F7.2°C 42.0°F5.6°C 88% Calm Calm 6.0 mph9.7 kmh 29.63 in1003.4 mb 0.00 in0.0 mm 0.00 in0.0 mm 0.00 in0.0 mm
05:20 AM 44.9°F7.2°C 42.0°F5.6°C 88% Calm Calm 6.0 mph9.7 kmh 29.63 in1003.4 mb 0.00 in0.0 mm 0.00 in0.0 mm 0.00 in0.0 mm
05:15 AM 44.9°F7.2°C 42.0°F5.6°C 88% Calm Calm 6.0 mph9.7 kmh 29.63 in1003.4 mb 0.00 in0.0 mm 0.00 in0.0 mm 0.00 in0.0 mm
05:10 AM 44.8°F7.1°C 42.0°F5.6°C 88% 1.0 mph SW1.6 kmh SW 6.0 mph9.7 kmh 29.63 in1003.4 mb 0.00 in0.0 mm 0.00 in0.0 mm 0.00 in0.0 mm
05:05 AM 44.8°F7.1°C 42.0°F5.6°C 88% Calm Calm 6.0 mph9.7 kmh 29.63 in1003.4 mb 0.00 in0.0 mm 0.00 in0.0 mm 0.00 in0.0 mm
05:00 AM 44.8°F7.1°C 42.0°F5.6°C 88% 1.0 mph SSW1.6 kmh SSW 8.0 mph12.9 kmh 29.63 in1003.4 mb 0.00 in0.0 mm 0.00 in0.0 mm 0.00 in0.0 mm
04:55 AM 44.9°F7.2°C 42.0°F5.6°C 88% 5.0 mph SSW8.0 kmh SSW 8.0 mph12.9 kmh 29.63 in1003.4 mb 0.00 in0.0 mm 0.00 in0.0 mm 0.00 in0.0 mm
04:50 AM 45.0°F7.2°C 42.0°F5.6°C 88% 1.0 mph SSW1.6 kmh SSW 5.0 mph8.0 kmh 29.63 in1003.4 mb 0.00 in0.0 mm 0.00 in0.0 mm 0.00 in0.0 mm
04:45 AM 45.0°F7.2°C 42.0°F5.6°C 88% Calm Calm 5.0 mph8.0 kmh 29.63 in1003.4 mb 0.00 in0.0 mm 0.00 in0.0 mm 0.00 in0.0 mm
04:40 AM 45.1°F7.3°C 42.0°F5.6°C 88% 1.0 mph WSW1.6 kmh WSW 7.0 mph11.3 kmh 29.63 in1003.4 mb 0.00 in0.0 mm 0.00 in0.0 mm 0.00 in0.0 mm
04:35 AM 45.2°F7.3°C 42.0°F5.6°C 88% Calm Calm 7.0 mph11.3 kmh 29.63 in1003.4 mb 0.00 in0.0 mm 0.00 in0.0 mm 0.00 in0.0 mm
04:30 AM 45.2°F7.3°C 42.0°F5.6°C 88% Calm Calm 6.0 mph9.7 kmh 29.63 in1003.4 mb 0.00 in0.0 mm 0.00 in0.0 mm 0.00 in0.0 mm
04:25 AM 45.3°F7.4°C 42.0°F5.6°C 88% Calm Calm 5.0 mph8.0 kmh 29.64 in1003.7 mb 0.00 in0.0 mm 0.00 in0.0 mm 0.00 in0.0 mm
04:20 AM 45.3°F7.4°C 42.0°F5.6°C 88% 1.0 mph SW1.6 kmh SW 7.0 mph11.3 kmh 29.64 in1003.7 mb 0.00 in0.0 mm 0.00 in0.0 mm 0.00 in0.0 mm
04:15 AM 45.2°F7.3°C 42.0°F5.6°C 88% Calm Calm 7.0 mph11.3 kmh 29.64 in1003.7 mb 0.00 in0.0 mm 0.00 in0.0 mm 0.00 in0.0 mm
04:10 AM 45.1°F7.3°C 42.0°F5.6°C 88% Calm Calm 7.0 mph11.3 kmh 29.64 in1003.7 mb 0.00 in0.0 mm 0.00 in0.0 mm 0.00 in0.0 mm
04:05 AM 45.1°F7.3°C 42.0°F5.6°C 88% Calm Calm 7.0 mph11.3 kmh 29.64 in1003.7 mb 0.00 in0.0 mm 0.00 in0.0 mm 0.00 in0.0 mm
04:00 AM 45.0°F7.2°C 42.0°F5.6°C 88% Calm Calm 9.0 mph14.5 kmh 29.64 in1003.7 mb 0.00 in0.0 mm 0.00 in0.0 mm 0.00 in0.0 mm
03:55 AM 44.8°F7.1°C 42.0°F5.6°C 88% 1.0 mph W1.6 kmh W 9.0 mph14.5 kmh 29.64 in1003.7 mb 0.00 in0.0 mm 0.00 in0.0 mm 0.00 in0.0 mm
03:50 AM 44.5°F6.9°C 41.0°F5.0°C 88% 1.0 mph W1.6 kmh W 7.0 mph11.3 kmh 29.64 in1003.7 mb 0.00 in0.0 mm 0.00 in0.0 mm 0.00 in0.0 mm
03:45 AM 44.3°F6.8°C 41.0°F5.0°C 88% 4.0 mph SSW6.4 kmh SSW 7.0 mph11.3 kmh 29.64 in1003.7 mb 0.00 in0.0 mm 0.00 in0.0 mm 0.00 in0.0 mm
03:40 AM 44.3°F6.8°C 41.0°F5.0°C 88% 4.0 mph SW6.4 kmh SW 8.0 mph12.9 kmh 29.64 in1003.7 mb 0.00 in0.0 mm 0.00 in0.0 mm 0.00 in0.0 mm
03:35 AM 44.2°F6.8°C 41.0°F5.0°C 87% 2.0 mph SSW3.2 kmh SSW 6.0 mph9.7 kmh 29.64 in1003.7 mb 0.00 in0.0 mm 0.00 in0.0 mm 0.00 in0.0 mm
03:30 AM 44.4°F6.9°C 41.0°F5.0°C 88% 5.0 mph WSW8.0 kmh WSW 6.0 mph9.7 kmh 29.64 in1003.7 mb 0.00 in0.0 mm 0.00 in0.0 mm 0.00 in0.0 mm
03:25 AM 44.6°F7.0°C 41.0°F5.0°C 87% 3.0 mph SSW4.8 kmh SSW 5.0 mph8.0 kmh 29.64 in1003.7 mb 0.00 in0.0 mm 0.00 in0.0 mm 0.00 in0.0 mm
03:20 AM 44.8°F7.1°C 41.0°F5.0°C 87% 1.0 mph SW1.6 kmh SW 5.0 mph8.0 kmh 29.64 in1003.7 mb 0.00 in0.0 mm 0.00 in0.0 mm 0.00 in0.0 mm
03:15 AM 45.1°F7.3°C 42.0°F5.6°C 88% 4.0 mph SW6.4 kmh SW 4.0 mph6.4 kmh 29.64 in1003.7 mb 0.00 in0.0 mm 0.00 in0.0 mm 0.00 in0.0 mm
03:10 AM 45.3°F7.4°C 42.0°F5.6°C 87% 2.0 mph SSW3.2 kmh SSW 4.0 mph6.4 kmh 29.64 in1003.7 mb 0.00 in0.0 mm 0.00 in0.0 mm 0.00 in0.0 mm
03:05 AM 45.5°F7.5°C 42.0°F5.6°C 88% 1.0 mph S1.6 kmh S 4.0 mph6.4 kmh 29.64 in1003.7 mb 0.00 in0.0 mm 0.00 in0.0 mm 0.00 in0.0 mm
03:00 AM 45.7°F7.6°C 42.0°F5.6°C 88% 1.0 mph SSW1.6 kmh SSW 4.0 mph6.4 kmh 29.64 in1003.7 mb 0.00 in0.0 mm 0.00 in0.0 mm 0.00 in0.0 mm
02:55 AM 45.8°F7.7°C 42.0°F5.6°C 87% 1.0 mph SSW1.6 kmh SSW 6.0 mph9.7 kmh 29.63 in1003.4 mb 0.00 in0.0 mm 0.00 in0.0 mm 0.00 in0.0 mm
02:50 AM 46.0°F7.8°C 42.0°F5.6°C 87% 1.0 mph SSW1.6 kmh SSW 6.0 mph9.7 kmh 29.64 in1003.7 mb 0.00 in0.0 mm 0.00 in0.0 mm 0.00 in0.0 mm
02:45 AM 46.2°F7.9°C 43.0°F6.1°C 88% Calm Calm 6.0 mph9.7 kmh 29.64 in1003.7 mb 0.00 in0.0 mm 0.00 in0.0 mm 0.00 in0.0 mm
02:40 AM 46.4°F8.0°C 43.0°F6.1°C 88% 2.0 mph SSW3.2 kmh SSW 8.0 mph12.9 kmh 29.64 in1003.7 mb 0.00 in0.0 mm 0.00 in0.0 mm 0.00 in0.0 mm
02:35 AM 46.7°F8.2°C 43.0°F6.1°C 88% 1.0 mph SW1.6 kmh SW 8.0 mph12.9 kmh 29.64 in1003.7 mb 0.00 in0.0 mm 0.00 in0.0 mm 0.00 in0.0 mm
02:30 AM 46.9°F8.3°C 44.0°F6.7°C 88% Calm Calm 7.0 mph11.3 kmh 29.64 in1003.7 mb 0.00 in0.0 mm 0.00 in0.0 mm 0.00 in0.0 mm
02:25 AM 47.0°F8.3°C 44.0°F6.7°C 88% 2.0 mph SSW3.2 kmh SSW 9.0 mph14.5 kmh 29.64 in1003.7 mb 0.00 in0.0 mm 0.00 in0.0 mm 0.00 in0.0 mm
02:20 AM 47.3°F8.5°C 44.0°F6.7°C 88% 1.0 mph SW1.6 kmh SW 10.0 mph16.1 kmh 29.64 in1003.7 mb 0.00 in0.0 mm 0.00 in0.0 mm 0.00 in0.0 mm
02:15 AM 47.5°F8.6°C 44.0°F6.7°C 88% Calm Calm 10.0 mph16.1 kmh 29.64 in1003.7 mb 0.00 in0.0 mm 0.00 in0.0 mm 0.00 in0.0 mm
02:10 AM 47.7°F8.7°C 44.0°F6.7°C 88% 2.0 mph S3.2 kmh S 8.0 mph12.9 kmh 29.64 in1003.7 mb 0.00 in0.0 mm 0.00 in0.0 mm 0.00 in0.0 mm
02:05 AM 47.9°F8.8°C 45.0°F7.2°C 88% 4.0 mph SW6.4 kmh SW 8.0 mph12.9 kmh 29.64 in1003.7 mb 0.00 in0.0 mm 0.00 in0.0 mm 0.00 in0.0 mm
02:00 AM 48.0°F8.9°C 45.0°F7.2°C 88% 7.0 mph SW11.3 kmh SW 8.0 mph12.9 kmh 29.64 in1003.7 mb 0.00 in0.0 mm 0.00 in0.0 mm 0.00 in0.0 mm
01:55 AM 48.1°F8.9°C 45.0°F7.2°C 88% 3.0 mph WSW4.8 kmh WSW 7.0 mph11.3 kmh 29.64 in1003.7 mb 0.00 in0.0 mm 0.00 in0.0 mm 0.00 in0.0 mm
01:50 AM 48.2°F9.0°C 45.0°F7.2°C 88% Calm Calm 9.0 mph14.5 kmh 29.64 in1003.7 mb 0.00 in0.0 mm 0.00 in0.0 mm 0.00 in0.0 mm
01:45 AM 48.3°F9.1°C 45.0°F7.2°C 88% 2.0 mph SW3.2 kmh SW 8.0 mph12.9 kmh 29.64 in1003.7 mb 0.00 in0.0 mm 0.00 in0.0 mm 0.00 in0.0 mm
01:40 AM 48.4°F9.1°C 45.0°F7.2°C 88% 7.0 mph S11.3 kmh S 10.0 mph16.1 kmh 29.64 in1003.7 mb 0.00 in0.0 mm 0.00 in0.0 mm 0.00 in0.0 mm
01:35 AM 48.5°F9.2°C 45.0°F7.2°C 88% 6.0 mph SW9.7 kmh SW 12.0 mph19.3 kmh 29.64 in1003.7 mb 0.00 in0.0 mm 0.00 in0.0 mm 0.00 in0.0 mm
01:30 AM 48.6°F9.2°C 45.0°F7.2°C 88% 6.0 mph WSW9.7 kmh WSW 12.0 mph19.3 kmh 29.64 in1003.7 mb 0.00 in0.0 mm 0.00 in0.0 mm 0.00 in0.0 mm
01:25 AM 48.8°F9.3°C 45.0°F7.2°C 88% 4.0 mph S6.4 kmh S 12.0 mph19.3 kmh 29.64 in1003.7 mb 0.00 in0.0 mm 0.00 in0.0 mm 0.00 in0.0 mm
01:20 AM 49.0°F9.4°C 46.0°F7.8°C 88% 2.0 mph NW3.2 kmh NW 8.0 mph12.9 kmh 29.64 in1003.7 mb 0.00 in0.0 mm 0.00 in0.0 mm 0.00 in0.0 mm
01:15 AM 49.2°F9.6°C 46.0°F7.8°C 88% 3.0 mph WNW4.8 kmh WNW 9.0 mph14.5 kmh 29.64 in1003.7 mb 0.00 in0.0 mm 0.00 in0.0 mm 0.00 in0.0 mm
01:10 AM 49.3°F9.6°C 46.0°F7.8°C 88% Calm Calm 9.0 mph14.5 kmh 29.64 in1003.7 mb 0.00 in0.0 mm 0.00 in0.0 mm 0.00 in0.0 mm
01:05 AM 49.6°F9.8°C 46.0°F7.8°C 88% 1.0 mph SW1.6 kmh SW 9.0 mph14.5 kmh 29.64 in1003.7 mb 0.00 in0.0 mm 0.00 in0.0 mm 0.00 in0.0 mm
01:00 AM 49.7°F9.8°C 46.0°F7.8°C 88% 2.0 mph SW3.2 kmh SW 13.0 mph20.9 kmh 29.65 in1004.1 mb 0.00 in0.0 mm 0.00 in0.0 mm 0.00 in0.0 mm
12:55 AM 49.9°F9.9°C 47.0°F8.3°C 88% 3.0 mph SW4.8 kmh SW 13.0 mph20.9 kmh 29.65 in1004.1 mb 0.00 in0.0 mm 0.00 in0.0 mm 0.00 in0.0 mm
12:50 AM 50.1°F10.1°C 47.0°F8.3°C 88% 4.0 mph SW6.4 kmh SW 10.0 mph16.1 kmh 29.65 in1004.1 mb 0.00 in0.0 mm 0.00 in0.0 mm 0.00 in0.0 mm
12:45 AM 50.2°F10.1°C 47.0°F8.3°C 88% 8.0 mph SSW12.9 kmh SSW 9.0 mph14.5 kmh 29.65 in1004.1 mb 0.00 in0.0 mm 0.00 in0.0 mm 0.00 in0.0 mm
12:40 AM 50.3°F10.2°C 47.0°F8.3°C 88% Calm Calm 10.0 mph16.1 kmh 29.65 in1004.1 mb 0.00 in0.0 mm 0.00 in0.0 mm 0.00 in0.0 mm
12:35 AM 50.5°F10.3°C 47.0°F8.3°C 88% 2.0 mph SW3.2 kmh SW 11.0 mph17.7 kmh 29.65 in1004.1 mb 0.00 in0.0 mm 0.00 in0.0 mm 0.00 in0.0 mm
12:30 AM 50.6°F10.3°C 47.0°F8.3°C 88% 8.0 mph SSW12.9 kmh SSW 11.0 mph17.7 kmh 29.65 in1004.1 mb 0.00 in0.0 mm 0.00 in0.0 mm 0.00 in0.0 mm
12:25 AM 50.8°F10.4°C 47.0°F8.3°C 88% 6.0 mph SW9.7 kmh SW 11.0 mph17.7 kmh 29.65 in1004.1 mb 0.00 in0.0 mm 0.00 in0.0 mm 0.00 in0.0 mm
12:20 AM 51.0°F10.6°C 48.0°F8.9°C 88% 7.0 mph SSW11.3 kmh SSW 8.0 mph12.9 kmh 29.64 in1003.7 mb 0.00 in0.0 mm 0.00 in0.0 mm 0.00 in0.0 mm
12:15 AM 51.2°F10.7°C 48.0°F8.9°C 88% 4.0 mph SSW6.4 kmh SSW 9.0 mph14.5 kmh 29.64 in1003.7 mb 0.00 in0.0 mm 0.00 in0.0 mm 0.00 in0.0 mm
12:10 AM 51.5°F10.8°C 48.0°F8.9°C 88% 6.0 mph SW9.7 kmh SW 13.0 mph20.9 kmh 29.64 in1003.7 mb 0.00 in0.0 mm 0.00 in0.0 mm 0.00 in0.0 mm
12:05 AM 51.9°F11.1°C 49.0°F9.4°C 88% Calm Calm 13.0 mph20.9 kmh 29.64 in1003.7 mb 0.00 in0.0 mm 0.00 in0.0 mm 0.00 in0.0 mm
12:00 AM 52.0°F11.1°C 49.0°F9.4°C 88% 8.0 mph SSW12.9 kmh SSW 14.0 mph22.5 kmh 29.65 in1004.1 mb 0.00 in0.0 mm 0.00 in0.0 mm 0.00 in0.0 mm